sensor_id;sensor_type;location;lat;lon;timestamp;P1;durP1;ratioP1;P2;durP2;ratioP2
29838;SDS011;18669;53.356;-1.464;2022-07-01T00:15:20;3.05;;;1.33;;
29838;SDS011;18669;53.356;-1.464;2022-07-01T00:17:50;2.88;;;1.40;;
29838;SDS011;18669;53.356;-1.464;2022-07-01T00:20:24;2.67;;;0.95;;
29838;SDS011;18669;53.356;-1.464;2022-07-01T00:23:00;2.85;;;1.20;;
29838;SDS011;18669;53.356;-1.464;2022-07-01T00:25:32;4.45;;;1.40;;
29838;SDS011;18669;53.356;-1.464;2022-07-01T00:35:38;2.95;;;1.20;;
29838;SDS011;18669;53.356;-1.464;2022-07-01T00:42:01;3.38;;;1.38;;
29838;SDS011;18669;53.356;-1.464;2022-07-01T00:52:32;1.60;;;1.25;;
29838;SDS011;18669;53.356;-1.464;2022-07-01T01:02:44;1.23;;;1.00;;
29838;SDS011;18669;53.356;-1.464;2022-07-01T01:05:11;5.50;;;1.20;;
29838;SDS011;18669;53.356;-1.464;2022-07-01T01:07:40;1.90;;;1.10;;
29838;SDS011;18669;53.356;-1.464;2022-07-01T01:10:07;1.90;;;1.45;;
29838;SDS011;18669;53.356;-1.464;2022-07-01T01:21:24;2.88;;;1.50;;
29838;SDS011;18669;53.356;-1.464;2022-07-01T01:34:51;4.90;;;1.60;;
29838;SDS011;18669;53.356;-1.464;2022-07-01T01:38:19;1.75;;;1.50;;
29838;SDS011;18669;53.356;-1.464;2022-07-01T01:45:14;1.85;;;1.65;;
29838;SDS011;18669;53.356;-1.464;2022-07-01T01:51:05;5.03;;;1.80;;
29838;SDS011;18669;53.356;-1.464;2022-07-01T02:06:16;3.05;;;1.90;;
29838;SDS011;18669;53.356;-1.464;2022-07-01T02:08:45;4.13;;;2.10;;
29838;SDS011;18669;53.356;-1.464;2022-07-01T02:11:51;4.25;;;2.20;;
29838;SDS011;18669;53.356;-1.464;2022-07-01T02:14:20;2.53;;;2.17;;
29838;SDS011;18669;53.356;-1.464;2022-07-01T02:16:48;3.50;;;2.40;;
29838;SDS011;18669;53.356;-1.464;2022-07-01T02:24:15;3.70;;;2.30;;
29838;SDS011;18669;53.356;-1.464;2022-07-01T02:27:40;4.45;;;2.45;;
29838;SDS011;18669;53.356;-1.464;2022-07-01T02:30:29;3.10;;;2.35;;
29838;SDS011;18669;53.356;-1.464;2022-07-01T02:34:16;3.25;;;2.22;;
29838;SDS011;18669;53.356;-1.464;2022-07-01T02:36:48;3.13;;;2.33;;
29838;SDS011;18669;53.356;-1.464;2022-07-01T02:43:31;5.47;;;2.45;;
29838;SDS011;18669;53.356;-1.464;2022-07-01T02:46:08;8.80;;;2.70;;
29838;SDS011;18669;53.356;-1.464;2022-07-01T02:48:38;3.28;;;2.30;;
29838;SDS011;18669;53.356;-1.464;2022-07-01T03:00:18;5.70;;;2.87;;
29838;SDS011;18669;53.356;-1.464;2022-07-01T03:02:45;4.85;;;2.90;;
29838;SDS011;18669;53.356;-1.464;2022-07-01T03:05:12;4.20;;;3.33;;
29838;SDS011;18669;53.356;-1.464;2022-07-01T03:07:41;5.32;;;3.33;;
29838;SDS011;18669;53.356;-1.464;2022-07-01T03:14:45;5.53;;;3.45;;
29838;SDS011;18669;53.356;-1.464;2022-07-01T03:20:56;4.15;;;3.63;;
29838;SDS011;18669;53.356;-1.464;2022-07-01T03:23:30;5.07;;;3.90;;
29838;SDS011;18669;53.356;-1.464;2022-07-01T03:26:16;7.47;;;4.63;;
29838;SDS011;18669;53.356;-1.464;2022-07-01T03:28:46;6.78;;;3.97;;
29838;SDS011;18669;53.356;-1.464;2022-07-01T03:31:52;8.90;;;4.68;;
29838;SDS011;18669;53.356;-1.464;2022-07-01T03:34:22;5.80;;;4.38;;
29838;SDS011;18669;53.356;-1.464;2022-07-01T03:36:52;9.70;;;4.30;;
29838;SDS011;18669;53.356;-1.464;2022-07-01T03:45:58;7.45;;;5.20;;
29838;SDS011;18669;53.356;-1.464;2022-07-01T03:48:27;9.68;;;4.95;;
29838;SDS011;18669;53.356;-1.464;2022-07-01T04:10:41;7.47;;;5.57;;
29838;SDS011;18669;53.356;-1.464;2022-07-01T04:18:37;7.95;;;5.65;;
29838;SDS011;18669;53.356;-1.464;2022-07-01T04:36:20;6.18;;;5.47;;
29838;SDS011;18669;53.356;-1.464;2022-07-01T04:54:20;9.57;;;6.30;;
29838;SDS011;18669;53.356;-1.464;2022-07-01T04:56:52;6.38;;;5.50;;
29838;SDS011;18669;53.356;-1.464;2022-07-01T05:02:05;9.70;;;5.95;;
29838;SDS011;18669;53.356;-1.464;2022-07-01T05:04:50;10.55;;;5.88;;
29838;SDS011;18669;53.356;-1.464;2022-07-01T05:07:19;7.32;;;5.95;;
29838;SDS011;18669;53.356;-1.464;2022-07-01T05:13:02;7.40;;;6.13;;
29838;SDS011;18669;53.356;-1.464;2022-07-01T05:19:23;6.72;;;5.90;;
29838;SDS011;18669;53.356;-1.464;2022-07-01T05:25:18;8.63;;;6.38;;
29838;SDS011;18669;53.356;-1.464;2022-07-01T05:35:10;8.93;;;6.60;;
29838;SDS011;18669;53.356;-1.464;2022-07-01T05:38:10;7.07;;;6.18;;
29838;SDS011;18669;53.356;-1.464;2022-07-01T05:40:45;7.60;;;6.53;;
29838;SDS011;18669;53.356;-1.464;2022-07-01T05:43:17;8.13;;;6.17;;
29838;SDS011;18669;53.356;-1.464;2022-07-01T05:56:25;9.02;;;6.97;;
29838;SDS011;18669;53.356;-1.464;2022-07-01T06:02:42;7.22;;;6.15;;
29838;SDS011;18669;53.356;-1.464;2022-07-01T06:08:56;7.88;;;6.28;;
29838;SDS011;18669;53.356;-1.464;2022-07-01T06:12:10;6.72;;;6.00;;
29838;SDS011;18669;53.356;-1.464;2022-07-01T06:15:12;8.02;;;5.82;;
29838;SDS011;18669;53.356;-1.464;2022-07-01T06:18:33;17.80;;;13.40;;
29838;SDS011;18669;53.356;-1.464;2022-07-01T06:21:02;10.57;;;7.97;;
29838;SDS011;18669;53.356;-1.464;2022-07-01T06:23:35;12.05;;;7.50;;
29838;SDS011;18669;53.356;-1.464;2022-07-01T06:26:11;11.32;;;7.70;;
29838;SDS011;18669;53.356;-1.464;2022-07-01T06:29:03;12.55;;;8.75;;
29838;SDS011;18669;53.356;-1.464;2022-07-01T06:31:57;15.40;;;10.10;;
29838;SDS011;18669;53.356;-1.464;2022-07-01T06:34:35;18.17;;;14.77;;
29838;SDS011;18669;53.356;-1.464;2022-07-01T06:37:09;15.20;;;9.63;;
29838;SDS011;18669;53.356;-1.464;2022-07-01T06:39:46;30.80;;;12.23;;
29838;SDS011;18669;53.356;-1.464;2022-07-01T06:42:45;19.25;;;9.40;;
29838;SDS011;18669;53.356;-1.464;2022-07-01T06:45:38;14.73;;;9.20;;
29838;SDS011;18669;53.356;-1.464;2022-07-01T06:56:00;8.05;;;6.05;;
29838;SDS011;18669;53.356;-1.464;2022-07-01T06:59:35;7.55;;;5.20;;
29838;SDS011;18669;53.356;-1.464;2022-07-01T07:20:17;8.07;;;4.85;;
29838;SDS011;18669;53.356;-1.464;2022-07-01T07:26:55;4.93;;;4.28;;
29838;SDS011;18669;53.356;-1.464;2022-07-01T07:38:04;7.97;;;3.63;;
29838;SDS011;18669;53.356;-1.464;2022-07-01T08:11:17;2.92;;;2.13;;
29838;SDS011;18669;53.356;-1.464;2022-07-01T08:21:17;4.53;;;2.22;;
29838;SDS011;18669;53.356;-1.464;2022-07-01T08:23:56;2.88;;;2.50;;
29838;SDS011;18669;53.356;-1.464;2022-07-01T08:37:31;4.78;;;3.75;;
29838;SDS011;18669;53.356;-1.464;2022-07-01T08:40:03;4.88;;;4.13;;
29838;SDS011;18669;53.356;-1.464;2022-07-01T08:47:12;8.15;;;4.85;;
29838;SDS011;18669;53.356;-1.464;2022-07-01T08:58:07;4.30;;;3.28;;
29838;SDS011;18669;53.356;-1.464;2022-07-01T09:04:41;5.13;;;2.90;;
29838;SDS011;18669;53.356;-1.464;2022-07-01T09:11:48;4.78;;;3.45;;
29838;SDS011;18669;53.356;-1.464;2022-07-01T09:18:10;5.18;;;2.88;;
29838;SDS011;18669;53.356;-1.464;2022-07-01T09:21:07;7.03;;;2.92;;
29838;SDS011;18669;53.356;-1.464;2022-07-01T09:27:18;7.00;;;2.30;;
29838;SDS011;18669;53.356;-1.464;2022-07-01T09:33:42;4.85;;;1.90;;
29838;SDS011;18669;53.356;-1.464;2022-07-01T09:36:26;5.78;;;2.33;;
29838;SDS011;18669;53.356;-1.464;2022-07-01T09:43:06;4.22;;;1.55;;
29838;SDS011;18669;53.356;-1.464;2022-07-01T09:46:32;8.55;;;2.03;;
29838;SDS011;18669;53.356;-1.464;2022-07-01T09:49:42;8.55;;;2.00;;
29838;SDS011;18669;53.356;-1.464;2022-07-01T09:52:13;2.35;;;1.80;;
29838;SDS011;18669;53.356;-1.464;2022-07-01T09:55:14;6.45;;;1.77;;
29838;SDS011;18669;53.356;-1.464;2022-07-01T09:58:28;3.55;;;1.80;;
29838;SDS011;18669;53.356;-1.464;2022-07-01T10:01:09;6.18;;;1.90;;
29838;SDS011;18669;53.356;-1.464;2022-07-01T10:04:26;5.18;;;1.83;;
29838;SDS011;18669;53.356;-1.464;2022-07-01T10:14:49;21.85;;;2.55;;
29838;SDS011;18669;53.356;-1.464;2022-07-01T10:17:28;7.40;;;2.10;;
29838;SDS011;18669;53.356;-1.464;2022-07-01T10:20:22;7.13;;;2.65;;
29838;SDS011;18669;53.356;-1.464;2022-07-01T10:23:01;8.80;;;3.90;;
29838;SDS011;18669;53.356;-1.464;2022-07-01T10:29:41;9.57;;;4.88;;
29838;SDS011;18669;53.356;-1.464;2022-07-01T10:41:18;2.95;;;2.15;;
29838;SDS011;18669;53.356;-1.464;2022-07-01T10:46:55;5.88;;;2.00;;
29838;SDS011;18669;53.356;-1.464;2022-07-01T11:01:04;2.78;;;1.13;;
29838;SDS011;18669;53.356;-1.464;2022-07-01T11:07:27;1.65;;;1.17;;
29838;SDS011;18669;53.356;-1.464;2022-07-01T11:10:15;3.78;;;1.10;;
29838;SDS011;18669;53.356;-1.464;2022-07-01T11:13:26;1.83;;;1.20;;
29838;SDS011;18669;53.356;-1.464;2022-07-01T11:23:40;7.22;;;1.05;;
29838;SDS011;18669;53.356;-1.464;2022-07-01T11:26:46;5.10;;;0.82;;
29838;SDS011;18669;53.356;-1.464;2022-07-01T11:29:30;3.13;;;0.98;;
29838;SDS011;18669;53.356;-1.464;2022-07-01T11:32:02;3.03;;;1.10;;
29838;SDS011;18669;53.356;-1.464;2022-07-01T11:34:35;1.98;;;1.17;;
29838;SDS011;18669;53.356;-1.464;2022-07-01T11:37:10;1.63;;;1.00;;
29838;SDS011;18669;53.356;-1.464;2022-07-01T11:40:03;3.42;;;1.35;;
29838;SDS011;18669;53.356;-1.464;2022-07-01T11:42:45;1.33;;;0.82;;
29838;SDS011;18669;53.356;-1.464;2022-07-01T11:45:24;1.05;;;0.90;;
29838;SDS011;18669;53.356;-1.464;2022-07-01T11:48:08;4.68;;;1.33;;
29838;SDS011;18669;53.356;-1.464;2022-07-01T11:50:40;3.83;;;0.90;;
29838;SDS011;18669;53.356;-1.464;2022-07-01T11:53:33;2.20;;;1.00;;
29838;SDS011;18669;53.356;-1.464;2022-07-01T11:56:06;9.25;;;1.17;;
29838;SDS011;18669;53.356;-1.464;2022-07-01T11:58:52;4.05;;;1.10;;
29838;SDS011;18669;53.356;-1.464;2022-07-01T12:09:25;7.38;;;1.15;;
29838;SDS011;18669;53.356;-1.464;2022-07-01T12:12:32;3.63;;;1.33;;
29838;SDS011;18669;53.356;-1.464;2022-07-01T12:40:39;1.98;;;1.00;;
29838;SDS011;18669;53.356;-1.464;2022-07-01T12:51:05;5.05;;;1.00;;
29838;SDS011;18669;53.356;-1.464;2022-07-01T12:53:43;5.18;;;1.20;;
29838;SDS011;18669;53.356;-1.464;2022-07-01T12:56:27;2.30;;;1.20;;
29838;SDS011;18669;53.356;-1.464;2022-07-01T12:59:32;1.25;;;1.00;;
29838;SDS011;18669;53.356;-1.464;2022-07-01T13:02:18;1.13;;;1.00;;
29838;SDS011;18669;53.356;-1.464;2022-07-01T13:05:51;3.15;;;1.20;;
29838;SDS011;18669;53.356;-1.464;2022-07-01T13:08:35;4.90;;;1.52;;
29838;SDS011;18669;53.356;-1.464;2022-07-01T13:11:20;9.60;;;1.80;;
29838;SDS011;18669;53.356;-1.464;2022-07-01T13:14:52;7.07;;;2.03;;
29838;SDS011;18669;53.356;-1.464;2022-07-01T13:17:49;4.10;;;1.85;;
29838;SDS011;18669;53.356;-1.464;2022-07-01T13:20:30;4.35;;;1.73;;
29838;SDS011;18669;53.356;-1.464;2022-07-01T13:23:31;4.55;;;2.10;;
29838;SDS011;18669;53.356;-1.464;2022-07-01T13:26:40;3.10;;;2.05;;
29838;SDS011;18669;53.356;-1.464;2022-07-01T13:29:24;4.35;;;1.92;;
29838;SDS011;18669;53.356;-1.464;2022-07-01T13:31:55;2.75;;;1.73;;
29838;SDS011;18669;53.356;-1.464;2022-07-01T13:42:22;3.92;;;1.90;;
29838;SDS011;18669;53.356;-1.464;2022-07-01T13:44:53;4.80;;;1.92;;
29838;SDS011;18669;53.356;-1.464;2022-07-01T13:47:25;2.53;;;1.40;;
29838;SDS011;18669;53.356;-1.464;2022-07-01T13:50:00;3.30;;;1.67;;
29838;SDS011;18669;53.356;-1.464;2022-07-01T13:52:48;4.75;;;1.38;;
29838;SDS011;18669;53.356;-1.464;2022-07-01T13:55:30;2.58;;;0.95;;
29838;SDS011;18669;53.356;-1.464;2022-07-01T13:58:02;2.00;;;1.00;;
29838;SDS011;18669;53.356;-1.464;2022-07-01T14:00:43;2.50;;;1.25;;
29838;SDS011;18669;53.356;-1.464;2022-07-01T14:03:57;5.13;;;1.17;;
29838;SDS011;18669;53.356;-1.464;2022-07-01T14:14:16;2.72;;;1.20;;
29838;SDS011;18669;53.356;-1.464;2022-07-01T14:20:37;2.72;;;0.80;;
29838;SDS011;18669;53.356;-1.464;2022-07-01T14:23:37;1.20;;;1.00;;
29838;SDS011;18669;53.356;-1.464;2022-07-01T14:30:55;3.17;;;1.27;;
29838;SDS011;18669;53.356;-1.464;2022-07-01T14:34:14;2.00;;;0.93;;
29838;SDS011;18669;53.356;-1.464;2022-07-01T14:36:46;8.25;;;1.48;;
29838;SDS011;18669;53.356;-1.464;2022-07-01T14:39:22;4.27;;;1.03;;
29838;SDS011;18669;53.356;-1.464;2022-07-01T14:42:21;1.95;;;1.13;;
29838;SDS011;18669;53.356;-1.464;2022-07-01T14:44:55;3.15;;;1.02;;
29838;SDS011;18669;53.356;-1.464;2022-07-01T14:47:31;1.92;;;1.40;;
29838;SDS011;18669;53.356;-1.464;2022-07-01T14:50:45;6.25;;;1.63;;
29838;SDS011;18669;53.356;-1.464;2022-07-01T14:53:28;2.63;;;1.77;;
29838;SDS011;18669;53.356;-1.464;2022-07-01T14:56:19;4.00;;;1.35;;
29838;SDS011;18669;53.356;-1.464;2022-07-01T14:59:09;4.50;;;1.30;;
29838;SDS011;18669;53.356;-1.464;2022-07-01T15:06:29;1.77;;;1.40;;
29838;SDS011;18669;53.356;-1.464;2022-07-01T15:09:08;2.10;;;1.20;;
29838;SDS011;18669;53.356;-1.464;2022-07-01T15:16:13;4.72;;;1.70;;
29838;SDS011;18669;53.356;-1.464;2022-07-01T15:19:09;4.28;;;1.77;;
29838;SDS011;18669;53.356;-1.464;2022-07-01T15:21:48;3.83;;;1.50;;
29838;SDS011;18669;53.356;-1.464;2022-07-01T15:24:25;1.67;;;1.13;;
29838;SDS011;18669;53.356;-1.464;2022-07-01T15:29:26;1.27;;;1.10;;
29838;SDS011;18669;53.356;-1.464;2022-07-01T15:32:09;4.47;;;1.45;;
29838;SDS011;18669;53.356;-1.464;2022-07-01T15:35:03;3.80;;;1.23;;
29838;SDS011;18669;53.356;-1.464;2022-07-01T15:37:37;2.85;;;1.52;;
29838;SDS011;18669;53.356;-1.464;2022-07-01T15:40:30;2.47;;;1.40;;
29838;SDS011;18669;53.356;-1.464;2022-07-01T15:43:19;4.25;;;1.33;;
29838;SDS011;18669;53.356;-1.464;2022-07-01T15:46:15;5.38;;;1.30;;
29838;SDS011;18669;53.356;-1.464;2022-07-01T15:51:29;2.15;;;1.10;;
29838;SDS011;18669;53.356;-1.464;2022-07-01T15:54:15;3.28;;;1.20;;
29838;SDS011;18669;53.356;-1.464;2022-07-01T15:56:57;2.17;;;1.00;;
29838;SDS011;18669;53.356;-1.464;2022-07-01T15:59:52;4.30;;;1.20;;
29838;SDS011;18669;53.356;-1.464;2022-07-01T16:06:46;2.47;;;1.20;;
29838;SDS011;18669;53.356;-1.464;2022-07-01T16:13:27;4.40;;;1.27;;
29838;SDS011;18669;53.356;-1.464;2022-07-01T16:16:04;4.93;;;1.25;;
29838;SDS011;18669;53.356;-1.464;2022-07-01T16:18:38;1.42;;;1.10;;
29838;SDS011;18669;53.356;-1.464;2022-07-01T16:21:15;2.70;;;1.20;;
29838;SDS011;18669;53.356;-1.464;2022-07-01T16:23:55;3.47;;;1.17;;
29838;SDS011;18669;53.356;-1.464;2022-07-01T16:30:46;2.20;;;1.20;;
29838;SDS011;18669;53.356;-1.464;2022-07-01T16:34:20;2.65;;;0.98;;
29838;SDS011;18669;53.356;-1.464;2022-07-01T16:37:08;5.78;;;1.20;;
29838;SDS011;18669;53.356;-1.464;2022-07-01T16:39:50;2.65;;;1.10;;
29838;SDS011;18669;53.356;-1.464;2022-07-01T16:42:32;1.80;;;1.00;;
29838;SDS011;18669;53.356;-1.464;2022-07-01T16:49:53;6.78;;;1.60;;
29838;SDS011;18669;53.356;-1.464;2022-07-01T16:52:37;3.40;;;1.00;;
29838;SDS011;18669;53.356;-1.464;2022-07-01T16:55:28;6.03;;;1.10;;
29838;SDS011;18669;53.356;-1.464;2022-07-01T16:58:01;2.20;;;0.75;;
29838;SDS011;18669;53.356;-1.464;2022-07-01T17:00:36;3.47;;;1.02;;
29838;SDS011;18669;53.356;-1.464;2022-07-01T17:03:18;3.63;;;1.20;;
29838;SDS011;18669;53.356;-1.464;2022-07-01T17:08:55;3.38;;;1.23;;
29838;SDS011;18669;53.356;-1.464;2022-07-01T17:15:55;6.15;;;3.13;;
29838;SDS011;18669;53.356;-1.464;2022-07-01T17:18:54;2.80;;;0.98;;
29838;SDS011;18669;53.356;-1.464;2022-07-01T17:21:30;2.28;;;0.80;;
29838;SDS011;18669;53.356;-1.464;2022-07-01T17:24:45;0.95;;;0.85;;
29838;SDS011;18669;53.356;-1.464;2022-07-01T17:30:07;0.95;;;0.90;;
29838;SDS011;18669;53.356;-1.464;2022-07-01T17:32:55;1.73;;;0.93;;
29838;SDS011;18669;53.356;-1.464;2022-07-01T17:38:17;3.33;;;0.80;;
29838;SDS011;18669;53.356;-1.464;2022-07-01T17:47:44;2.03;;;0.90;;
29838;SDS011;18669;53.356;-1.464;2022-07-01T17:50:15;4.05;;;0.95;;
29838;SDS011;18669;53.356;-1.464;2022-07-01T17:52:59;1.52;;;0.90;;
29838;SDS011;18669;53.356;-1.464;2022-07-01T17:55:32;2.75;;;0.90;;
29838;SDS011;18669;53.356;-1.464;2022-07-01T18:05:48;3.85;;;1.10;;
29838;SDS011;18669;53.356;-1.464;2022-07-01T18:30:18;2.05;;;1.00;;
29838;SDS011;18669;53.356;-1.464;2022-07-01T18:40:00;2.60;;;1.00;;
29838;SDS011;18669;53.356;-1.464;2022-07-01T18:42:33;2.38;;;1.10;;
29838;SDS011;18669;53.356;-1.464;2022-07-01T18:45:15;2.33;;;1.10;;
29838;SDS011;18669;53.356;-1.464;2022-07-01T18:51:11;1.27;;;0.98;;
29838;SDS011;18669;53.356;-1.464;2022-07-01T18:57:05;1.70;;;0.80;;
29838;SDS011;18669;53.356;-1.464;2022-07-01T18:59:55;1.85;;;0.90;;
29838;SDS011;18669;53.356;-1.464;2022-07-01T19:02:42;2.97;;;1.20;;
29838;SDS011;18669;53.356;-1.464;2022-07-01T19:06:32;1.98;;;0.95;;
29838;SDS011;18669;53.356;-1.464;2022-07-01T19:09:02;3.47;;;1.13;;
29838;SDS011;18669;53.356;-1.464;2022-07-01T19:11:35;5.18;;;1.60;;
29838;SDS011;18669;53.356;-1.464;2022-07-01T19:18:13;2.03;;;1.08;;
29838;SDS011;18669;53.356;-1.464;2022-07-01T19:26:54;4.00;;;0.90;;
29838;SDS011;18669;53.356;-1.464;2022-07-01T19:32:21;5.30;;;0.75;;
29838;SDS011;18669;53.356;-1.464;2022-07-01T19:34:55;1.33;;;0.60;;
29838;SDS011;18669;53.356;-1.464;2022-07-01T19:47:55;1.98;;;0.90;;
29838;SDS011;18669;53.356;-1.464;2022-07-01T19:50:25;1.90;;;0.75;;
29838;SDS011;18669;53.356;-1.464;2022-07-01T19:53:22;0.73;;;0.60;;
29838;SDS011;18669;53.356;-1.464;2022-07-01T20:05:54;1.05;;;0.50;;
29838;SDS011;18669;53.356;-1.464;2022-07-01T20:15:54;0.65;;;0.52;;
29838;SDS011;18669;53.356;-1.464;2022-07-01T20:18:31;4.65;;;0.70;;
29838;SDS011;18669;53.356;-1.464;2022-07-01T20:21:25;2.05;;;0.70;;
29838;SDS011;18669;53.356;-1.464;2022-07-01T20:24:06;2.13;;;0.80;;
29838;SDS011;18669;53.356;-1.464;2022-07-01T20:27:09;3.05;;;0.68;;
29838;SDS011;18669;53.356;-1.464;2022-07-01T20:31:08;3.78;;;0.82;;
29838;SDS011;18669;53.356;-1.464;2022-07-01T20:33:59;4.45;;;0.98;;
29838;SDS011;18669;53.356;-1.464;2022-07-01T20:36:37;4.80;;;1.00;;
29838;SDS011;18669;53.356;-1.464;2022-07-01T20:39:19;2.53;;;0.77;;
29838;SDS011;18669;53.356;-1.464;2022-07-01T20:42:48;1.48;;;0.70;;
29838;SDS011;18669;53.356;-1.464;2022-07-01T20:45:25;2.05;;;0.70;;
29838;SDS011;18669;53.356;-1.464;2022-07-01T20:55:43;0.82;;;0.73;;
29838;SDS011;18669;53.356;-1.464;2022-07-01T20:58:25;3.72;;;0.90;;
29838;SDS011;18669;53.356;-1.464;2022-07-01T21:01:44;2.47;;;0.63;;
29838;SDS011;18669;53.356;-1.464;2022-07-01T21:04:28;1.48;;;0.68;;
29838;SDS011;18669;53.356;-1.464;2022-07-01T21:07:07;2.67;;;0.73;;
29838;SDS011;18669;53.356;-1.464;2022-07-01T21:10:19;2.60;;;0.77;;
29838;SDS011;18669;53.356;-1.464;2022-07-01T21:13:35;2.38;;;0.68;;
29838;SDS011;18669;53.356;-1.464;2022-07-01T21:16:25;1.23;;;0.80;;
29838;SDS011;18669;53.356;-1.464;2022-07-01T21:19:37;4.95;;;0.77;;
29838;SDS011;18669;53.356;-1.464;2022-07-01T21:23:07;1.95;;;0.70;;
29838;SDS011;18669;53.356;-1.464;2022-07-01T21:29:20;2.25;;;0.85;;
29838;SDS011;18669;53.356;-1.464;2022-07-01T21:40:17;0.73;;;0.50;;
29838;SDS011;18669;53.356;-1.464;2022-07-01T21:42:47;3.95;;;0.60;;
29838;SDS011;18669;53.356;-1.464;2022-07-01T21:46:23;2.42;;;0.98;;
29838;SDS011;18669;53.356;-1.464;2022-07-01T21:53:01;2.40;;;0.80;;
29838;SDS011;18669;53.356;-1.464;2022-07-01T21:59:49;1.13;;;0.80;;
29838;SDS011;18669;53.356;-1.464;2022-07-01T22:02:58;2.92;;;0.80;;
29838;SDS011;18669;53.356;-1.464;2022-07-01T22:05:39;2.90;;;1.02;;
29838;SDS011;18669;53.356;-1.464;2022-07-01T22:08:25;2.38;;;0.80;;
29838;SDS011;18669;53.356;-1.464;2022-07-01T22:11:03;2.85;;;0.98;;
29838;SDS011;18669;53.356;-1.464;2022-07-01T22:14:22;1.83;;;1.35;;
29838;SDS011;18669;53.356;-1.464;2022-07-01T22:16:33;3.20;;;0.75;;
29838;SDS011;18669;53.356;-1.464;2022-07-01T22:22:10;3.58;;;0.70;;
29838;SDS011;18669;53.356;-1.464;2022-07-01T22:24:40;3.85;;;0.70;;
29838;SDS011;18669;53.356;-1.464;2022-07-01T22:27:07;0.98;;;0.60;;
29838;SDS011;18669;53.356;-1.464;2022-07-01T22:29:38;1.02;;;0.60;;
29838;SDS011;18669;53.356;-1.464;2022-07-01T22:32:06;2.30;;;0.68;;
29838;SDS011;18669;53.356;-1.464;2022-07-01T22:34:35;9.23;;;0.80;;
29838;SDS011;18669;53.356;-1.464;2022-07-01T22:37:05;2.20;;;0.75;;
29838;SDS011;18669;53.356;-1.464;2022-07-01T22:39:32;2.88;;;0.73;;
29838;SDS011;18669;53.356;-1.464;2022-07-01T22:41:59;2.60;;;0.70;;
29838;SDS011;18669;53.356;-1.464;2022-07-01T22:44:29;4.22;;;0.70;;
29838;SDS011;18669;53.356;-1.464;2022-07-01T22:53:16;1.35;;;0.80;;
29838;SDS011;18669;53.356;-1.464;2022-07-01T22:56:01;2.30;;;0.88;;
29838;SDS011;18669;53.356;-1.464;2022-07-01T22:58:35;1.90;;;0.70;;
29838;SDS011;18669;53.356;-1.464;2022-07-01T23:01:16;2.65;;;0.70;;
29838;SDS011;18669;53.356;-1.464;2022-07-01T23:03:52;2.30;;;0.73;;
29838;SDS011;18669;53.356;-1.464;2022-07-01T23:06:31;5.60;;;1.15;;
29838;SDS011;18669;53.356;-1.464;2022-07-01T23:15:32;1.15;;;0.77;;
29838;SDS011;18669;53.356;-1.464;2022-07-01T23:18:22;6.05;;;1.10;;
29838;SDS011;18669;53.356;-1.464;2022-07-01T23:20:50;4.65;;;1.00;;
29838;SDS011;18669;53.356;-1.464;2022-07-01T23:23:22;3.40;;;0.80;;
29838;SDS011;18669;53.356;-1.464;2022-07-01T23:25:50;3.88;;;0.90;;
29838;SDS011;18669;53.356;-1.464;2022-07-01T23:28:43;1.88;;;0.80;;
29838;SDS011;18669;53.356;-1.464;2022-07-01T23:31:20;3.25;;;0.88;;
29838;SDS011;18669;53.356;-1.464;2022-07-01T23:33:50;4.25;;;1.05;;
29838;SDS011;18669;53.356;-1.464;2022-07-01T23:40:00;2.88;;;0.85;;
29838;SDS011;18669;53.356;-1.464;2022-07-01T23:42:31;2.13;;;1.00;;
29838;SDS011;18669;53.356;-1.464;2022-07-01T23:45:15;3.35;;;1.00;;
29838;SDS011;18669;53.356;-1.464;2022-07-01T23:48:01;6.30;;;0.80;;
29838;SDS011;18669;53.356;-1.464;2022-07-01T23:50:36;1.45;;;1.00;;
29838;SDS011;18669;53.356;-1.464;2022-07-01T23:53:03;2.10;;;0.80;;
29838;SDS011;18669;53.356;-1.464;2022-07-01T23:55:50;4.47;;;1.10;;
29838;SDS011;18669;53.356;-1.464;2022-07-01T23:58:21;5.45;;;0.90;;
